createdAt,value
2019-03-26T00:00:42.949Z,10.50
2019-03-26T00:03:11.387Z,7.65
2019-03-26T00:05:39.911Z,10.82
2019-03-26T00:08:08.363Z,10.93
2019-03-26T00:10:36.887Z,10.70
2019-03-26T00:13:05.337Z,10.10
2019-03-26T00:15:33.792Z,10.60
2019-03-26T00:18:02.245Z,11.03
2019-03-26T00:20:30.721Z,9.88
2019-03-26T00:22:59.181Z,11.57
2019-03-26T00:25:27.681Z,13.43
2019-03-26T00:27:56.139Z,9.35
2019-03-26T00:30:24.590Z,14.03
2019-03-26T00:32:53.057Z,10.72
2019-03-26T00:35:21.559Z,11.28
2019-03-26T00:37:50.012Z,14.33
2019-03-26T00:40:18.448Z,11.38
2019-03-26T00:42:46.889Z,13.32
2019-03-26T00:45:15.344Z,10.05
2019-03-26T00:47:43.791Z,12.35
2019-03-26T00:50:12.322Z,16.37
2019-03-26T00:52:40.769Z,12.43
2019-03-26T00:55:22.092Z,16.77
2019-03-26T00:57:39.997Z,11.33
2019-03-26T01:00:09.781Z,12.18
2019-03-26T01:02:38.316Z,11.30
2019-03-26T01:05:07.858Z,12.50
2019-03-26T01:07:36.313Z,14.10
2019-03-26T01:10:08.939Z,10.93
2019-03-26T01:12:37.430Z,14.33
2019-03-26T01:15:07.416Z,12.58
2019-03-26T01:17:35.905Z,15.40
2019-03-26T01:20:06.359Z,13.25
2019-03-26T01:22:35.091Z,12.82
2019-03-26T01:25:04.159Z,13.95
2019-03-26T01:27:32.697Z,18.12
2019-03-26T01:30:01.143Z,16.45
2019-03-26T01:32:29.593Z,13.85
2019-03-26T01:34:58.053Z,13.70
2019-03-26T01:37:26.500Z,16.10
2019-03-26T01:39:55.033Z,13.45
2019-03-26T01:42:23.481Z,12.33
2019-03-26T01:44:51.967Z,16.45
2019-03-26T01:47:20.506Z,15.05
2019-03-26T01:49:49.002Z,14.50
2019-03-26T01:52:17.541Z,16.48
2019-03-26T01:54:45.983Z,14.68
2019-03-26T01:57:14.465Z,15.50
2019-03-26T01:59:42.910Z,15.28
2019-03-26T02:02:11.352Z,13.25
2019-03-26T02:04:39.892Z,14.20
2019-03-26T02:07:08.336Z,14.80
2019-03-26T02:09:36.794Z,16.70
2019-03-26T02:12:05.301Z,15.48
2019-03-26T02:14:33.860Z,17.07
2019-03-26T02:17:02.300Z,13.48
2019-03-26T02:19:30.744Z,14.68
2019-03-26T02:21:59.200Z,16.27
2019-03-26T02:24:27.640Z,19.55
2019-03-26T02:26:56.100Z,17.80
2019-03-26T02:29:24.540Z,16.27
2019-03-26T02:31:53.005Z,15.93
2019-03-26T02:34:21.441Z,20.97
2019-03-26T02:36:50.023Z,17.67
2019-03-26T02:39:18.533Z,17.12
2019-03-26T02:41:46.980Z,17.70
2019-03-26T02:44:15.445Z,16.85
2019-03-26T02:46:43.964Z,14.03
2019-03-26T02:49:12.416Z,16.75
2019-03-26T02:51:40.869Z,19.60
2019-03-26T02:54:09.394Z,13.83
2019-03-26T02:56:37.845Z,15.65
2019-03-26T02:59:06.348Z,18.07
2019-03-26T03:01:34.848Z,22.65
2019-03-26T03:04:03.335Z,16.90
2019-03-26T03:06:31.869Z,16.73
2019-03-26T03:09:00.379Z,18.40
2019-03-26T03:11:28.912Z,18.75
2019-03-26T03:13:57.356Z,17.17
2019-03-26T03:16:25.857Z,21.95
2019-03-26T03:18:54.375Z,18.42
2019-03-26T03:21:22.811Z,22.37
2019-03-26T03:23:51.284Z,16.60
2019-03-26T03:26:19.802Z,18.87
2019-03-26T03:28:48.270Z,18.77
2019-03-26T03:31:16.798Z,19.57
2019-03-26T03:33:45.423Z,18.37
2019-03-26T03:36:13.873Z,18.17
2019-03-26T03:38:42.326Z,15.60
2019-03-26T03:41:10.808Z,19.52
2019-03-26T03:43:39.268Z,19.92
2019-03-26T03:46:07.849Z,15.35
2019-03-26T03:48:37.025Z,16.55
2019-03-26T03:51:07.242Z,15.03
2019-03-26T03:53:36.029Z,16.60
2019-03-26T03:56:05.377Z,14.30
2019-03-26T03:58:35.900Z,16.67
2019-03-26T04:01:04.362Z,14.43
2019-03-26T04:03:32.886Z,16.67
2019-03-26T04:06:08.697Z,15.43
2019-03-26T04:08:31.581Z,16.02
2019-03-26T04:11:00.028Z,16.52
2019-03-26T04:13:28.486Z,14.83
2019-03-26T04:15:56.945Z,15.85
2019-03-26T04:18:25.471Z,15.55
2019-03-26T04:20:53.936Z,17.67
2019-03-26T04:23:22.469Z,16.73
2019-03-26T04:25:50.924Z,18.77
2019-03-26T04:28:19.384Z,17.05
2019-03-26T04:30:47.926Z,17.65
2019-03-26T04:33:16.425Z,17.12
2019-03-26T04:35:44.897Z,20.35
2019-03-26T04:38:13.343Z,15.65
2019-03-26T04:40:41.800Z,18.00
2019-03-26T04:43:10.248Z,21.15
2019-03-26T04:45:38.698Z,16.67
2019-03-26T04:48:07.236Z,20.88
2019-03-26T04:50:35.672Z,21.77
2019-03-26T04:53:04.140Z,16.82
2019-03-26T04:55:32.590Z,14.20
2019-03-26T04:58:01.047Z,18.82
2019-03-26T05:00:29.581Z,15.60
2019-03-26T05:02:58.792Z,17.30
2019-03-26T05:05:27.247Z,15.72
2019-03-26T05:07:55.707Z,21.80
2019-03-26T05:10:25.735Z,17.85
2019-03-26T05:12:54.198Z,15.85
2019-03-26T05:15:22.653Z,18.85
2019-03-26T05:17:51.108Z,19.65
2019-03-26T05:20:19.560Z,18.52
2019-03-26T05:22:48.081Z,17.25
2019-03-26T05:25:16.562Z,19.55
2019-03-26T05:27:45.898Z,16.75
2019-03-26T05:30:14.708Z,15.80
2019-03-26T05:32:43.233Z,21.75
2019-03-26T05:35:12.746Z,18.17
2019-03-26T05:37:41.200Z,20.88
2019-03-26T05:40:11.527Z,17.48
2019-03-26T05:42:40.071Z,15.08
2019-03-26T05:45:09.993Z,17.05
2019-03-26T05:47:38.433Z,13.75
2019-03-26T05:50:08.922Z,15.83
2019-03-26T05:52:38.119Z,16.75
2019-03-26T05:55:07.603Z,21.33
2019-03-26T05:57:37.407Z,16.67
2019-03-26T06:00:13.252Z,16.60
2019-03-26T06:02:41.800Z,15.65
2019-03-26T06:05:10.247Z,16.02
2019-03-26T06:07:38.819Z,13.53
2019-03-26T06:10:09.398Z,12.53
2019-03-26T06:12:37.867Z,14.83
2019-03-26T06:15:10.211Z,13.05
2019-03-26T06:17:38.739Z,15.03
2019-03-26T06:20:08.061Z,15.58
2019-03-26T06:22:36.522Z,13.43
2019-03-26T06:25:08.333Z,14.07
2019-03-26T06:27:36.783Z,11.53
2019-03-26T06:30:08.002Z,14.60
2019-03-26T06:32:36.964Z,12.28
2019-03-26T06:35:08.754Z,12.58
2019-03-26T06:37:37.480Z,11.95
2019-03-26T06:40:09.365Z,15.60
2019-03-26T06:42:37.893Z,9.33
2019-03-26T06:45:08.261Z,11.05
2019-03-26T06:47:37.694Z,10.15
2019-03-26T06:50:11.282Z,10.35
2019-03-26T06:52:39.734Z,10.72
2019-03-26T06:55:08.928Z,9.63
2019-03-26T06:57:37.748Z,10.18
2019-03-26T07:00:11.363Z,12.85
2019-03-26T07:02:39.880Z,10.48
2019-03-26T07:05:08.872Z,11.22
2019-03-26T07:07:37.336Z,12.10
2019-03-26T07:10:08.619Z,11.03
2019-03-26T07:12:37.095Z,12.53
2019-03-26T07:15:09.385Z,12.90
2019-03-26T07:17:37.844Z,14.23
2019-03-26T07:20:08.411Z,14.80
2019-03-26T07:22:36.855Z,16.48
2019-03-26T07:25:08.444Z,13.35
2019-03-26T07:27:37.808Z,15.30
2019-03-26T07:30:08.316Z,16.77
2019-03-26T07:32:36.774Z,14.87
2019-03-26T07:35:07.131Z,16.90
2019-03-26T07:37:45.099Z,17.15
2019-03-26T07:40:06.696Z,16.32
2019-03-26T07:42:35.175Z,18.25
2019-03-26T07:45:05.593Z,17.15
2019-03-26T07:47:34.131Z,20.77
2019-03-26T07:50:02.655Z,14.35
2019-03-26T07:52:31.103Z,16.48
2019-03-26T07:54:59.553Z,17.07
2019-03-26T07:57:28.015Z,13.53
2019-03-26T07:59:56.496Z,11.88
2019-03-26T08:02:24.930Z,11.20
2019-03-26T08:04:53.399Z,9.13
2019-03-26T08:07:21.901Z,11.75
2019-03-26T08:09:50.365Z,8.48
2019-03-26T08:12:18.828Z,10.18
2019-03-26T08:14:47.351Z,8.68
2019-03-26T08:17:15.788Z,9.53
2019-03-26T08:19:44.236Z,7.78
2019-03-26T08:22:12.759Z,11.68
2019-03-26T08:24:41.238Z,11.50
2019-03-26T08:27:09.700Z,10.80
2019-03-26T08:29:38.148Z,9.85
2019-03-26T08:32:06.592Z,8.10
2019-03-26T08:34:35.040Z,8.48
2019-03-26T08:37:03.490Z,12.40
2019-03-26T08:39:31.940Z,8.48
2019-03-26T08:42:00.380Z,10.65
2019-03-26T08:44:28.832Z,8.38
2019-03-26T08:46:57.272Z,8.88
2019-03-26T08:49:30.637Z,12.65
2019-03-26T08:51:55.920Z,7.95
2019-03-26T08:54:24.369Z,10.72
2019-03-26T08:56:52.820Z,8.78
2019-03-26T08:59:21.265Z,9.18
2019-03-26T09:01:49.711Z,8.90
2019-03-26T09:04:18.147Z,10.25
2019-03-26T09:06:46.685Z,10.95
2019-03-26T09:09:15.123Z,9.98
2019-03-26T09:11:43.570Z,11.05
2019-03-26T09:14:12.106Z,10.30
2019-03-26T09:16:40.543Z,8.95
2019-03-26T09:19:08.992Z,11.70
2019-03-26T09:21:37.431Z,8.20
2019-03-26T09:24:05.882Z,6.12
2019-03-26T09:26:34.331Z,10.80
2019-03-26T09:29:02.780Z,9.13
2019-03-26T09:31:31.235Z,9.00
2019-03-26T09:33:59.732Z,7.35
2019-03-26T09:36:28.243Z,6.90
2019-03-26T09:38:56.689Z,9.55
2019-03-26T09:41:25.140Z,7.62
2019-03-26T09:43:53.623Z,7.83
2019-03-26T09:46:22.145Z,8.08
2019-03-26T09:48:50.583Z,9.45
2019-03-26T09:51:19.027Z,8.28
2019-03-26T09:53:47.479Z,7.30
2019-03-26T09:56:28.305Z,7.00
2019-03-26T09:58:46.139Z,6.75
2019-03-26T10:01:14.596Z,7.10
2019-03-26T10:03:43.131Z,7.00
2019-03-26T10:06:22.840Z,7.72
2019-03-26T10:08:51.765Z,6.33
2019-03-26T10:11:11.919Z,10.30
2019-03-26T10:13:40.365Z,7.90
2019-03-26T10:16:08.820Z,8.10
2019-03-26T10:18:37.279Z,7.03
2019-03-26T10:21:05.797Z,7.33
2019-03-26T10:23:34.232Z,5.83
2019-03-26T10:26:02.690Z,7.62
2019-03-26T10:28:31.151Z,7.33
2019-03-26T10:30:59.623Z,8.73
2019-03-26T10:33:28.068Z,6.80
2019-03-26T10:35:56.505Z,5.05
2019-03-26T10:38:24.979Z,7.55
2019-03-26T10:40:53.420Z,8.68
2019-03-26T10:43:21.860Z,6.33
2019-03-26T10:45:50.317Z,3.92
2019-03-26T10:48:18.766Z,21.82
2019-03-26T10:50:47.247Z,6.30
2019-03-26T10:53:15.688Z,3.10
2019-03-26T10:55:44.142Z,3.62
2019-03-26T10:58:12.664Z,3.10
2019-03-26T11:00:41.115Z,3.85
2019-03-26T11:03:09.562Z,5.00
2019-03-26T11:05:38.008Z,4.28
2019-03-26T11:08:06.449Z,5.80
2019-03-26T11:10:34.922Z,5.12
2019-03-26T11:13:03.362Z,3.75
2019-03-26T11:15:31.818Z,3.90
2019-03-26T11:18:00.297Z,3.22
2019-03-26T11:20:28.752Z,4.70
2019-03-26T11:22:57.195Z,3.42
2019-03-26T11:25:25.672Z,2.95
2019-03-26T11:27:54.116Z,3.90
2019-03-26T11:30:22.575Z,3.87
2019-03-26T11:32:51.023Z,3.62
2019-03-26T11:35:19.467Z,4.03
2019-03-26T11:37:47.999Z,4.50
2019-03-26T11:40:16.589Z,5.25
2019-03-26T11:42:45.129Z,3.70
2019-03-26T11:45:14.540Z,3.42
2019-03-26T11:47:43.015Z,4.67
2019-03-26T11:50:11.996Z,5.00
2019-03-26T11:52:41.080Z,4.42
2019-03-26T11:55:10.906Z,4.72
2019-03-26T11:57:39.539Z,4.58
2019-03-26T12:00:10.704Z,4.28
2019-03-26T12:02:39.168Z,5.05
2019-03-26T12:05:08.070Z,3.85
2019-03-26T12:07:37.276Z,5.12
2019-03-26T12:10:08.991Z,6.03
2019-03-26T12:12:37.428Z,7.33
2019-03-26T12:15:07.773Z,5.67
2019-03-26T12:17:36.240Z,4.97
2019-03-26T12:20:06.674Z,5.62
2019-03-26T12:22:35.134Z,3.47
2019-03-26T12:25:04.776Z,4.47
2019-03-26T12:27:36.331Z,4.75
2019-03-26T12:30:05.345Z,5.70
2019-03-26T12:32:33.781Z,4.33
2019-03-26T12:35:02.597Z,4.72
2019-03-26T12:37:31.055Z,5.05
2019-03-26T12:40:00.693Z,5.60
2019-03-26T12:42:29.535Z,7.30
2019-03-26T12:44:58.002Z,6.22
2019-03-26T12:47:26.439Z,4.78
2019-03-26T12:49:55.081Z,5.35
2019-03-26T12:52:23.532Z,4.58
2019-03-26T12:54:52.000Z,5.92
2019-03-26T12:57:20.455Z,4.40
2019-03-26T12:59:48.892Z,5.67
2019-03-26T13:02:17.340Z,4.05
2019-03-26T13:04:45.788Z,6.35
2019-03-26T13:07:14.248Z,5.40
2019-03-26T13:09:42.688Z,5.53
2019-03-26T13:12:11.155Z,5.25
2019-03-26T13:14:39.593Z,5.50
2019-03-26T13:17:08.047Z,6.33
2019-03-26T13:19:36.503Z,5.92
2019-03-26T13:22:05.040Z,5.12
2019-03-26T13:24:33.512Z,4.25
2019-03-26T13:27:01.969Z,4.70
2019-03-26T13:29:30.431Z,4.95
2019-03-26T13:31:58.871Z,5.05
2019-03-26T13:34:27.341Z,5.03
2019-03-26T13:36:55.851Z,4.85
2019-03-26T13:39:24.313Z,6.62
2019-03-26T13:41:55.191Z,4.50
2019-03-26T13:44:23.664Z,4.28
2019-03-26T13:46:52.131Z,4.50
2019-03-26T13:49:20.618Z,4.72
2019-03-26T13:51:49.101Z,3.37
2019-03-26T13:54:17.551Z,6.22
2019-03-26T13:56:46.009Z,3.10
2019-03-26T13:59:14.457Z,4.47
2019-03-26T14:01:42.907Z,3.27
2019-03-26T14:04:11.366Z,4.25
2019-03-26T14:06:39.896Z,4.53
2019-03-26T14:09:08.577Z,5.33
2019-03-26T14:11:37.092Z,7.08
2019-03-26T14:14:05.550Z,3.45
2019-03-26T14:16:49.019Z,5.37
2019-03-26T14:19:17.477Z,5.10
2019-03-26T14:21:45.929Z,5.75
2019-03-26T14:24:14.366Z,3.40
2019-03-26T14:26:42.801Z,4.92
2019-03-26T14:29:11.251Z,4.50
2019-03-26T14:31:39.710Z,5.50
2019-03-26T14:34:08.192Z,5.12
2019-03-26T14:36:36.638Z,4.08
2019-03-26T14:39:08.158Z,5.25
2019-03-26T14:41:36.619Z,5.47
2019-03-26T14:44:05.065Z,5.67
2019-03-26T14:46:33.613Z,5.15
2019-03-26T14:49:03.711Z,3.40
2019-03-26T14:51:32.163Z,3.75
2019-03-26T14:54:00.619Z,3.60
2019-03-26T14:56:29.071Z,4.05
2019-03-26T14:58:57.539Z,7.83
2019-03-26T15:01:26.263Z,4.10
2019-03-26T15:03:54.729Z,6.47
2019-03-26T15:06:23.184Z,4.58
2019-03-26T15:08:51.640Z,6.42
2019-03-26T15:11:20.179Z,4.60
2019-03-26T15:13:49.655Z,4.33
2019-03-26T15:16:18.327Z,4.28
2019-03-26T15:18:46.801Z,4.95
2019-03-26T15:21:15.244Z,5.12
2019-03-26T15:23:43.703Z,4.35
2019-03-26T15:26:12.156Z,5.25
2019-03-26T15:28:40.606Z,3.35
2019-03-26T15:31:09.126Z,3.85
2019-03-26T15:33:37.592Z,3.72
2019-03-26T15:36:06.073Z,5.65
2019-03-26T15:38:34.636Z,4.75
2019-03-26T15:41:03.096Z,4.40
2019-03-26T15:43:31.563Z,5.67
2019-03-26T15:46:00.064Z,4.50
2019-03-26T15:48:28.541Z,5.22
2019-03-26T15:50:56.980Z,4.05
2019-03-26T15:53:25.506Z,4.42
2019-03-26T15:55:53.970Z,4.45
2019-03-26T15:58:22.434Z,5.42
2019-03-26T16:00:50.886Z,5.15
2019-03-26T16:03:22.274Z,4.35
2019-03-26T16:05:49.500Z,5.00
2019-03-26T16:08:17.965Z,5.47
2019-03-26T16:10:46.416Z,5.42
2019-03-26T16:13:14.857Z,5.72
2019-03-26T16:15:45.013Z,5.58
2019-03-26T16:18:13.485Z,5.58
2019-03-26T16:20:41.939Z,5.92
2019-03-26T16:23:10.379Z,7.17
2019-03-26T16:25:38.828Z,5.53
2019-03-26T16:28:07.309Z,5.50
2019-03-26T16:30:35.759Z,5.37
2019-03-26T16:33:04.359Z,4.75
2019-03-26T16:35:32.809Z,4.95
2019-03-26T16:38:01.273Z,6.92
2019-03-26T16:40:29.768Z,5.70
2019-03-26T16:42:58.251Z,6.22
2019-03-26T16:45:26.831Z,7.90
2019-03-26T16:47:55.349Z,5.40
2019-03-26T16:50:23.939Z,5.97
2019-03-26T16:52:52.451Z,5.55
2019-03-26T16:55:20.889Z,7.33
2019-03-26T16:57:49.700Z,6.30
2019-03-26T17:00:21.303Z,6.20
2019-03-26T17:02:49.781Z,6.67
2019-03-26T17:05:21.363Z,5.12
2019-03-26T17:07:49.819Z,7.42
2019-03-26T17:10:18.297Z,5.72
2019-03-26T17:12:46.820Z,4.87
2019-03-26T17:15:15.331Z,6.10
2019-03-26T17:17:43.787Z,6.97
2019-03-26T17:20:12.414Z,5.72
2019-03-26T17:22:40.913Z,5.72
2019-03-26T17:25:09.607Z,6.97
2019-03-26T17:27:38.061Z,7.80
2019-03-26T17:30:07.835Z,6.65
2019-03-26T17:32:36.305Z,6.55
2019-03-26T17:35:06.508Z,7.60
2019-03-26T17:37:35.023Z,7.47
2019-03-26T17:40:04.614Z,8.15
2019-03-26T17:42:34.663Z,8.75
2019-03-26T17:45:07.688Z,7.80
2019-03-26T17:47:36.226Z,9.25
2019-03-26T17:50:07.205Z,8.48
2019-03-26T17:52:35.934Z,7.92
2019-03-26T17:55:06.776Z,7.75
2019-03-26T17:57:35.257Z,8.25
2019-03-26T18:00:04.938Z,8.73
2019-03-26T18:02:33.384Z,6.97
2019-03-26T18:05:01.830Z,9.78
2019-03-26T18:07:30.289Z,7.22
2019-03-26T18:09:58.728Z,7.87
2019-03-26T18:12:31.105Z,9.25
2019-03-26T18:14:57.349Z,10.93
2019-03-26T18:17:25.793Z,9.38
2019-03-26T18:19:54.312Z,9.23
2019-03-26T18:22:22.752Z,9.50
2019-03-26T18:24:51.201Z,8.90
2019-03-26T18:27:19.653Z,10.95
2019-03-26T18:29:48.120Z,12.07
2019-03-26T18:32:16.572Z,9.68
2019-03-26T18:34:45.028Z,7.85
2019-03-26T18:37:15.012Z,7.35
2019-03-26T18:39:43.505Z,10.18
2019-03-26T18:42:11.954Z,12.53
2019-03-26T18:44:40.468Z,10.40
2019-03-26T18:47:08.933Z,12.20
2019-03-26T18:49:37.380Z,13.72
2019-03-26T18:52:05.893Z,11.00
2019-03-26T18:54:34.407Z,9.78
2019-03-26T18:57:04.464Z,13.48
2019-03-26T18:59:32.915Z,10.70
2019-03-26T19:02:02.932Z,9.28
2019-03-26T19:04:31.360Z,8.45
2019-03-26T19:06:59.810Z,9.78
2019-03-26T19:09:28.260Z,7.95
2019-03-26T19:11:56.704Z,10.43
2019-03-26T19:14:25.155Z,8.25
2019-03-26T19:16:53.601Z,8.38
2019-03-26T19:19:22.063Z,9.33
2019-03-26T19:21:53.690Z,6.83
2019-03-26T19:24:22.132Z,7.77
2019-03-26T19:26:50.630Z,8.35
2019-03-26T19:29:30.499Z,10.43
2019-03-26T19:31:58.948Z,5.58
2019-03-26T19:34:28.820Z,9.10
2019-03-26T19:36:57.343Z,8.50
2019-03-26T19:39:27.442Z,11.50
2019-03-26T19:41:55.908Z,9.68
2019-03-26T19:44:24.360Z,8.68
2019-03-26T19:46:52.806Z,9.45
2019-03-26T19:49:21.271Z,8.90
2019-03-26T19:51:49.779Z,7.90
2019-03-26T19:54:18.234Z,10.00
2019-03-26T19:56:46.682Z,9.35
2019-03-26T19:59:15.135Z,10.05
2019-03-26T20:01:43.590Z,7.20
2019-03-26T20:04:12.038Z,11.68
2019-03-26T20:06:40.493Z,7.72
2019-03-26T20:09:08.941Z,10.53
2019-03-26T20:11:37.392Z,8.70
2019-03-26T20:14:05.886Z,9.25
2019-03-26T20:16:41.703Z,9.03
2019-03-26T20:19:04.973Z,9.20
2019-03-26T20:21:33.483Z,9.83
2019-03-26T20:24:02.013Z,9.63
2019-03-26T20:26:30.454Z,9.28
2019-03-26T20:28:58.927Z,10.25
2019-03-26T20:31:27.450Z,9.80
2019-03-26T20:33:55.890Z,8.25
2019-03-26T20:36:24.404Z,8.53
2019-03-26T20:38:52.897Z,12.15
2019-03-26T20:41:21.428Z,8.73
2019-03-26T20:43:49.951Z,10.38
2019-03-26T20:46:18.440Z,10.65
2019-03-26T20:48:46.937Z,9.50
2019-03-26T20:51:15.403Z,9.28
2019-03-26T20:53:43.858Z,12.85
2019-03-26T20:56:12.668Z,11.08
2019-03-26T20:58:41.640Z,8.08
2019-03-26T21:01:10.099Z,8.78
2019-03-26T21:03:38.540Z,9.10
2019-03-26T21:06:06.990Z,10.03
2019-03-26T21:08:35.450Z,10.82
2019-03-26T21:11:04.109Z,10.70
2019-03-26T21:13:32.560Z,9.90
2019-03-26T21:16:01.089Z,10.13
2019-03-26T21:18:29.605Z,11.28
2019-03-26T21:20:58.065Z,9.83
2019-03-26T21:23:26.504Z,10.60
2019-03-26T21:25:54.961Z,11.57
2019-03-26T21:28:23.504Z,10.03
2019-03-26T21:30:51.944Z,9.30
2019-03-26T21:33:22.056Z,13.53
2019-03-26T21:35:50.610Z,9.78
2019-03-26T21:38:19.120Z,12.05
2019-03-26T21:40:47.678Z,9.73
2019-03-26T21:43:16.224Z,9.30
2019-03-26T21:45:44.687Z,11.30
2019-03-26T21:48:13.123Z,9.73
2019-03-26T21:50:41.586Z,10.55
2019-03-26T21:53:10.028Z,12.47
2019-03-26T21:55:38.551Z,12.13
2019-03-26T21:58:14.262Z,10.53
2019-03-26T22:00:44.283Z,11.05
2019-03-26T22:03:13.044Z,13.32
2019-03-26T22:05:41.486Z,13.28
2019-03-26T22:08:09.937Z,9.65
2019-03-26T22:10:38.454Z,13.55
2019-03-26T22:13:06.904Z,12.88
2019-03-26T22:15:35.417Z,10.32
2019-03-26T22:18:03.983Z,11.95
2019-03-26T22:20:32.528Z,11.03
2019-03-26T22:23:01.470Z,10.45
2019-03-26T22:25:29.996Z,11.08
2019-03-26T22:27:58.437Z,12.85
2019-03-26T22:30:26.880Z,13.70
2019-03-26T22:32:55.340Z,13.65
2019-03-26T22:35:23.786Z,13.18
2019-03-26T22:37:52.323Z,14.58
2019-03-26T22:40:20.762Z,15.10
2019-03-26T22:42:49.292Z,17.10
2019-03-26T22:45:17.747Z,18.40
2019-03-26T22:47:46.192Z,14.23
2019-03-26T22:50:15.989Z,16.10
2019-03-26T22:52:44.439Z,16.45
2019-03-26T22:55:13.024Z,19.42
2019-03-26T22:57:41.467Z,17.12
2019-03-26T23:00:12.936Z,16.97
2019-03-26T23:02:41.386Z,14.25
2019-03-26T23:05:10.076Z,16.02
2019-03-26T23:07:38.534Z,19.27
2019-03-26T23:10:08.088Z,17.20
2019-03-26T23:12:36.609Z,16.37
2019-03-26T23:15:08.132Z,18.20
2019-03-26T23:17:36.604Z,15.80
2019-03-26T23:20:05.492Z,16.82
2019-03-26T23:22:33.936Z,18.52
2019-03-26T23:25:02.401Z,20.12
2019-03-26T23:27:30.924Z,20.88
2019-03-26T23:29:59.396Z,14.80
2019-03-26T23:32:27.848Z,15.60
2019-03-26T23:34:56.287Z,14.35
2019-03-26T23:37:24.746Z,15.80
2019-03-26T23:39:53.188Z,15.50
2019-03-26T23:42:21.636Z,17.42
2019-03-26T23:44:58.331Z,16.32
2019-03-26T23:47:20.264Z,15.70
2019-03-26T23:49:48.730Z,16.80
2019-03-26T23:52:17.179Z,16.65
2019-03-26T23:54:45.692Z,16.50
2019-03-26T23:57:14.160Z,18.10
2019-03-26T23:59:42.607Z,22.07
